sensor_id;sensor_type;location;lat;lon;timestamp;P1;durP1;ratioP1;P2;durP2;ratioP2
51854;SDS011;37895;53.240;6.572;2023-04-24T00:01:13;6.93;;;5.78;;
51854;SDS011;37895;53.240;6.572;2023-04-24T00:03:40;7.03;;;6.32;;
51854;SDS011;37895;53.240;6.572;2023-04-24T00:06:06;12.77;;;6.38;;
51854;SDS011;37895;53.240;6.572;2023-04-24T00:08:33;7.68;;;5.82;;
51854;SDS011;37895;53.240;6.572;2023-04-24T00:10:59;8.82;;;7.93;;
51854;SDS011;37895;53.240;6.572;2023-04-24T00:13:25;7.93;;;7.18;;
51854;SDS011;37895;53.240;6.572;2023-04-24T00:15:53;8.73;;;7.07;;
51854;SDS011;37895;53.240;6.572;2023-04-24T00:20:45;9.50;;;8.63;;
51854;SDS011;37895;53.240;6.572;2023-04-24T00:23:11;9.20;;;8.40;;
51854;SDS011;37895;53.240;6.572;2023-04-24T00:25:37;10.20;;;9.13;;
51854;SDS011;37895;53.240;6.572;2023-04-24T00:28:03;8.57;;;7.78;;
51854;SDS011;37895;53.240;6.572;2023-04-24T00:30:29;7.45;;;6.80;;
51854;SDS011;37895;53.240;6.572;2023-04-24T00:32:55;6.82;;;6.20;;
51854;SDS011;37895;53.240;6.572;2023-04-24T00:35:20;8.25;;;7.55;;
51854;SDS011;37895;53.240;6.572;2023-04-24T00:37:46;8.13;;;7.43;;
51854;SDS011;37895;53.240;6.572;2023-04-24T00:40:12;9.43;;;8.48;;
51854;SDS011;37895;53.240;6.572;2023-04-24T00:42:38;6.75;;;6.15;;
51854;SDS011;37895;53.240;6.572;2023-04-24T00:45:05;5.25;;;3.92;;
51854;SDS011;37895;53.240;6.572;2023-04-24T00:47:32;4.53;;;3.30;;
51854;SDS011;37895;53.240;6.572;2023-04-24T00:49:58;3.30;;;2.85;;
51854;SDS011;37895;53.240;6.572;2023-04-24T00:52:26;3.70;;;2.65;;
51854;SDS011;37895;53.240;6.572;2023-04-24T00:54:53;3.50;;;2.65;;
51854;SDS011;37895;53.240;6.572;2023-04-24T00:57:19;3.15;;;2.10;;
51854;SDS011;37895;53.240;6.572;2023-04-24T00:59:44;2.30;;;2.08;;
51854;SDS011;37895;53.240;6.572;2023-04-24T01:02:10;2.75;;;2.00;;
51854;SDS011;37895;53.240;6.572;2023-04-24T01:04:37;2.20;;;2.00;;
51854;SDS011;37895;53.240;6.572;2023-04-24T01:07:03;2.53;;;2.25;;
51854;SDS011;37895;53.240;6.572;2023-04-24T01:09:34;2.42;;;1.80;;
51854;SDS011;37895;53.240;6.572;2023-04-24T01:12:02;2.45;;;2.20;;
51854;SDS011;37895;53.240;6.572;2023-04-24T01:14:28;2.22;;;1.98;;
51854;SDS011;37895;53.240;6.572;2023-04-24T01:16:53;4.00;;;1.92;;
51854;SDS011;37895;53.240;6.572;2023-04-24T01:21:45;2.10;;;1.90;;
51854;SDS011;37895;53.240;6.572;2023-04-24T01:24:15;2.47;;;1.80;;
51854;SDS011;37895;53.240;6.572;2023-04-24T01:26:41;2.33;;;2.10;;
51854;SDS011;37895;53.240;6.572;2023-04-24T01:29:06;2.15;;;1.95;;
51854;SDS011;37895;53.240;6.572;2023-04-24T01:33:59;2.20;;;2.00;;
51854;SDS011;37895;53.240;6.572;2023-04-24T01:36:25;2.17;;;2.00;;
51854;SDS011;37895;53.240;6.572;2023-04-24T01:38:53;3.40;;;2.40;;
51854;SDS011;37895;53.240;6.572;2023-04-24T01:41:19;2.50;;;2.30;;
51854;SDS011;37895;53.240;6.572;2023-04-24T01:43:45;2.20;;;2.00;;
51854;SDS011;37895;53.240;6.572;2023-04-24T01:46:11;3.97;;;2.47;;
51854;SDS011;37895;53.240;6.572;2023-04-24T01:48:36;2.42;;;2.28;;
51854;SDS011;37895;53.240;6.572;2023-04-24T01:51:02;2.63;;;2.42;;
51854;SDS011;37895;53.240;6.572;2023-04-24T01:53:28;2.72;;;2.53;;
51854;SDS011;37895;53.240;6.572;2023-04-24T01:55:53;3.35;;;2.55;;
51854;SDS011;37895;53.240;6.572;2023-04-24T01:58:19;2.70;;;2.50;;
51854;SDS011;37895;53.240;6.572;2023-04-24T02:00:45;3.10;;;2.88;;
51854;SDS011;37895;53.240;6.572;2023-04-24T02:03:10;4.00;;;3.17;;
51854;SDS011;37895;53.240;6.572;2023-04-24T02:05:36;2.58;;;2.38;;
51854;SDS011;37895;53.240;6.572;2023-04-24T02:08:02;2.67;;;2.47;;
51854;SDS011;37895;53.240;6.572;2023-04-24T02:10:27;4.13;;;3.22;;
51854;SDS011;37895;53.240;6.572;2023-04-24T02:12:53;3.25;;;3.05;;
51854;SDS011;37895;53.240;6.572;2023-04-24T02:15:18;5.00;;;3.30;;
51854;SDS011;37895;53.240;6.572;2023-04-24T02:17:44;3.42;;;3.20;;
51854;SDS011;37895;53.240;6.572;2023-04-24T02:20:10;3.92;;;3.50;;
51854;SDS011;37895;53.240;6.572;2023-04-24T02:22:35;5.47;;;4.55;;
51854;SDS011;37895;53.240;6.572;2023-04-24T02:25:01;4.05;;;3.75;;
51854;SDS011;37895;53.240;6.572;2023-04-24T02:27:27;4.97;;;3.83;;
51854;SDS011;37895;53.240;6.572;2023-04-24T02:29:52;4.22;;;3.92;;
51854;SDS011;37895;53.240;6.572;2023-04-24T02:32:18;5.35;;;4.95;;
51854;SDS011;37895;53.240;6.572;2023-04-24T02:34:43;5.63;;;5.03;;
51854;SDS011;37895;53.240;6.572;2023-04-24T02:37:09;5.60;;;5.10;;
51854;SDS011;37895;53.240;6.572;2023-04-24T02:39:35;5.47;;;5.07;;
51854;SDS011;37895;53.240;6.572;2023-04-24T02:42:00;6.20;;;5.30;;
51854;SDS011;37895;53.240;6.572;2023-04-24T02:44:26;6.25;;;5.68;;
51854;SDS011;37895;53.240;6.572;2023-04-24T02:46:52;6.70;;;6.15;;
51854;SDS011;37895;53.240;6.572;2023-04-24T02:49:17;6.05;;;5.55;;
51854;SDS011;37895;53.240;6.572;2023-04-24T02:51:43;7.00;;;6.30;;
51854;SDS011;37895;53.240;6.572;2023-04-24T02:54:09;6.90;;;6.23;;
51854;SDS011;37895;53.240;6.572;2023-04-24T02:56:34;7.47;;;6.88;;
51854;SDS011;37895;53.240;6.572;2023-04-24T02:59:00;6.82;;;6.32;;
51854;SDS011;37895;53.240;6.572;2023-04-24T03:01:26;7.13;;;6.43;;
51854;SDS011;37895;53.240;6.572;2023-04-24T03:03:51;6.70;;;6.13;;
51854;SDS011;37895;53.240;6.572;2023-04-24T03:06:17;7.43;;;6.72;;
51854;SDS011;37895;53.240;6.572;2023-04-24T03:08:43;7.88;;;7.28;;
51854;SDS011;37895;53.240;6.572;2023-04-24T03:11:08;8.07;;;7.38;;
51854;SDS011;37895;53.240;6.572;2023-04-24T03:13:34;8.38;;;7.68;;
51854;SDS011;37895;53.240;6.572;2023-04-24T03:15:59;8.48;;;7.65;;
51854;SDS011;37895;53.240;6.572;2023-04-24T03:18:25;8.98;;;8.00;;
51854;SDS011;37895;53.240;6.572;2023-04-24T03:20:51;8.70;;;8.00;;
51854;SDS011;37895;53.240;6.572;2023-04-24T03:23:16;9.48;;;8.68;;
51854;SDS011;37895;53.240;6.572;2023-04-24T03:25:42;9.15;;;8.35;;
51854;SDS011;37895;53.240;6.572;2023-04-24T03:28:08;10.02;;;9.23;;
51854;SDS011;37895;53.240;6.572;2023-04-24T03:30:33;10.13;;;9.23;;
51854;SDS011;37895;53.240;6.572;2023-04-24T03:32:59;9.18;;;8.38;;
51854;SDS011;37895;53.240;6.572;2023-04-24T03:35:25;10.73;;;9.90;;
51854;SDS011;37895;53.240;6.572;2023-04-24T03:37:51;11.35;;;10.32;;
51854;SDS011;37895;53.240;6.572;2023-04-24T03:40:16;10.50;;;9.60;;
51854;SDS011;37895;53.240;6.572;2023-04-24T03:42:42;11.43;;;10.32;;
51854;SDS011;37895;53.240;6.572;2023-04-24T03:45:08;12.15;;;11.05;;
51854;SDS011;37895;53.240;6.572;2023-04-24T03:47:34;12.48;;;11.32;;
51854;SDS011;37895;53.240;6.572;2023-04-24T03:50:00;11.68;;;10.68;;
51854;SDS011;37895;53.240;6.572;2023-04-24T03:52:26;13.80;;;12.60;;
51854;SDS011;37895;53.240;6.572;2023-04-24T03:54:51;14.48;;;13.20;;
51854;SDS011;37895;53.240;6.572;2023-04-24T03:57:17;14.05;;;12.65;;
51854;SDS011;37895;53.240;6.572;2023-04-24T03:59:42;15.20;;;14.00;;
51854;SDS011;37895;53.240;6.572;2023-04-24T04:02:08;17.35;;;15.75;;
51854;SDS011;37895;53.240;6.572;2023-04-24T04:04:34;15.45;;;14.15;;
51854;SDS011;37895;53.240;6.572;2023-04-24T04:07:00;16.20;;;14.80;;
51854;SDS011;37895;53.240;6.572;2023-04-24T04:09:28;16.08;;;14.68;;
51854;SDS011;37895;53.240;6.572;2023-04-24T04:11:54;16.92;;;15.32;;
51854;SDS011;37895;53.240;6.572;2023-04-24T04:14:20;17.92;;;16.25;;
51854;SDS011;37895;53.240;6.572;2023-04-24T04:16:46;17.55;;;16.05;;
51854;SDS011;37895;53.240;6.572;2023-04-24T04:19:12;15.73;;;14.43;;
51854;SDS011;37895;53.240;6.572;2023-04-24T04:21:37;17.73;;;16.25;;
51854;SDS011;37895;53.240;6.572;2023-04-24T04:24:03;18.52;;;16.83;;
51854;SDS011;37895;53.240;6.572;2023-04-24T04:26:30;17.67;;;16.17;;
51854;SDS011;37895;53.240;6.572;2023-04-24T04:28:57;16.10;;;14.70;;
51854;SDS011;37895;53.240;6.572;2023-04-24T04:31:25;16.15;;;14.75;;
51854;SDS011;37895;53.240;6.572;2023-04-24T04:33:51;16.52;;;14.95;;
51854;SDS011;37895;53.240;6.572;2023-04-24T04:36:16;16.10;;;14.70;;
51854;SDS011;37895;53.240;6.572;2023-04-24T04:38:43;16.20;;;14.70;;
51854;SDS011;37895;53.240;6.572;2023-04-24T04:41:09;14.52;;;13.35;;
51854;SDS011;37895;53.240;6.572;2023-04-24T04:43:36;15.30;;;13.90;;
51854;SDS011;37895;53.240;6.572;2023-04-24T04:46:03;14.23;;;12.75;;
51854;SDS011;37895;53.240;6.572;2023-04-24T04:48:29;14.15;;;13.05;;
51854;SDS011;37895;53.240;6.572;2023-04-24T04:50:56;14.13;;;12.93;;
51854;SDS011;37895;53.240;6.572;2023-04-24T04:53:22;13.18;;;12.07;;
51854;SDS011;37895;53.240;6.572;2023-04-24T04:55:48;15.70;;;14.23;;
51854;SDS011;37895;53.240;6.572;2023-04-24T04:58:13;14.88;;;13.48;;
51854;SDS011;37895;53.240;6.572;2023-04-24T05:00:39;15.73;;;14.25;;
51854;SDS011;37895;53.240;6.572;2023-04-24T05:03:06;13.65;;;12.45;;
51854;SDS011;37895;53.240;6.572;2023-04-24T05:05:32;15.63;;;14.23;;
51854;SDS011;37895;53.240;6.572;2023-04-24T05:07:58;11.38;;;10.48;;
51854;SDS011;37895;53.240;6.572;2023-04-24T05:10:23;9.90;;;9.00;;
51854;SDS011;37895;53.240;6.572;2023-04-24T05:12:49;10.82;;;9.88;;
51854;SDS011;37895;53.240;6.572;2023-04-24T05:15:15;9.63;;;8.73;;
51854;SDS011;37895;53.240;6.572;2023-04-24T05:17:40;7.43;;;6.78;;
51854;SDS011;37895;53.240;6.572;2023-04-24T05:20:06;7.97;;;7.27;;
51854;SDS011;37895;53.240;6.572;2023-04-24T05:22:33;10.57;;;8.02;;
51854;SDS011;37895;53.240;6.572;2023-04-24T05:24:58;8.38;;;7.60;;
51854;SDS011;37895;53.240;6.572;2023-04-24T05:27:24;7.95;;;7.15;;
51854;SDS011;37895;53.240;6.572;2023-04-24T05:29:50;7.88;;;6.78;;
51854;SDS011;37895;53.240;6.572;2023-04-24T05:32:16;8.52;;;7.25;;
51854;SDS011;37895;53.240;6.572;2023-04-24T05:34:41;9.27;;;8.02;;
51854;SDS011;37895;53.240;6.572;2023-04-24T05:37:07;8.57;;;7.05;;
51854;SDS011;37895;53.240;6.572;2023-04-24T05:39:34;7.13;;;6.30;;
51854;SDS011;37895;53.240;6.572;2023-04-24T05:42:01;7.70;;;6.82;;
51854;SDS011;37895;53.240;6.572;2023-04-24T05:44:28;8.07;;;6.85;;
51854;SDS011;37895;53.240;6.572;2023-04-24T05:46:53;12.45;;;7.43;;
51854;SDS011;37895;53.240;6.572;2023-04-24T05:49:20;9.23;;;6.88;;
51854;SDS011;37895;53.240;6.572;2023-04-24T05:51:46;9.55;;;7.35;;
51854;SDS011;37895;53.240;6.572;2023-04-24T05:54:12;11.50;;;7.28;;
51854;SDS011;37895;53.240;6.572;2023-04-24T05:56:38;7.78;;;6.97;;
51854;SDS011;37895;53.240;6.572;2023-04-24T05:59:04;9.55;;;7.13;;
51854;SDS011;37895;53.240;6.572;2023-04-24T06:01:30;7.72;;;6.82;;
51854;SDS011;37895;53.240;6.572;2023-04-24T06:03:56;11.25;;;7.55;;
51854;SDS011;37895;53.240;6.572;2023-04-24T06:06:23;12.35;;;8.40;;
51854;SDS011;37895;53.240;6.572;2023-04-24T06:08:49;12.13;;;8.55;;
51854;SDS011;37895;53.240;6.572;2023-04-24T06:11:14;10.50;;;8.63;;
51854;SDS011;37895;53.240;6.572;2023-04-24T06:13:40;10.10;;;8.93;;
51854;SDS011;37895;53.240;6.572;2023-04-24T06:16:06;9.25;;;7.65;;
51854;SDS011;37895;53.240;6.572;2023-04-24T06:18:32;8.85;;;7.13;;
51854;SDS011;37895;53.240;6.572;2023-04-24T06:20:57;9.15;;;8.23;;
51854;SDS011;37895;53.240;6.572;2023-04-24T06:23:23;10.27;;;8.57;;
51854;SDS011;37895;53.240;6.572;2023-04-24T06:25:49;12.77;;;10.18;;
51854;SDS011;37895;53.240;6.572;2023-04-24T06:28:15;13.57;;;11.27;;
51854;SDS011;37895;53.240;6.572;2023-04-24T06:30:40;12.35;;;11.05;;
51854;SDS011;37895;53.240;6.572;2023-04-24T06:33:06;12.52;;;11.27;;
51854;SDS011;37895;53.240;6.572;2023-04-24T06:35:32;13.40;;;10.23;;
51854;SDS011;37895;53.240;6.572;2023-04-24T06:37:57;11.85;;;9.50;;
51854;SDS011;37895;53.240;6.572;2023-04-24T06:40:23;11.40;;;8.95;;
51854;SDS011;37895;53.240;6.572;2023-04-24T06:42:49;11.40;;;9.70;;
51854;SDS011;37895;53.240;6.572;2023-04-24T06:45:15;16.67;;;11.45;;
51854;SDS011;37895;53.240;6.572;2023-04-24T06:47:40;12.23;;;9.02;;
51854;SDS011;37895;53.240;6.572;2023-04-24T06:50:06;10.27;;;9.23;;
51854;SDS011;37895;53.240;6.572;2023-04-24T06:52:32;11.13;;;8.23;;
51854;SDS011;37895;53.240;6.572;2023-04-24T06:55:01;11.32;;;6.90;;
51854;SDS011;37895;53.240;6.572;2023-04-24T06:57:28;7.88;;;5.60;;
51854;SDS011;37895;53.240;6.572;2023-04-24T06:59:54;8.93;;;6.55;;
51854;SDS011;37895;53.240;6.572;2023-04-24T07:02:20;6.55;;;5.05;;
51854;SDS011;37895;53.240;6.572;2023-04-24T07:04:46;6.72;;;4.28;;
51854;SDS011;37895;53.240;6.572;2023-04-24T07:09:39;9.23;;;4.57;;
51854;SDS011;37895;53.240;6.572;2023-04-24T07:12:07;7.25;;;4.85;;
51854;SDS011;37895;53.240;6.572;2023-04-24T07:14:35;6.90;;;4.22;;
51854;SDS011;37895;53.240;6.572;2023-04-24T07:17:02;7.60;;;4.53;;
51854;SDS011;37895;53.240;6.572;2023-04-24T07:19:31;6.75;;;4.80;;
51854;SDS011;37895;53.240;6.572;2023-04-24T07:21:58;6.50;;;4.65;;
51854;SDS011;37895;53.240;6.572;2023-04-24T07:24:25;8.73;;;5.30;;
51854;SDS011;37895;53.240;6.572;2023-04-24T07:26:51;9.70;;;4.03;;
51854;SDS011;37895;53.240;6.572;2023-04-24T07:29:17;5.50;;;4.00;;
51854;SDS011;37895;53.240;6.572;2023-04-24T07:31:43;6.57;;;3.70;;
51854;SDS011;37895;53.240;6.572;2023-04-24T07:34:09;7.38;;;4.03;;
51854;SDS011;37895;53.240;6.572;2023-04-24T07:36:35;6.43;;;4.63;;
51854;SDS011;37895;53.240;6.572;2023-04-24T07:39:03;8.18;;;4.60;;
51854;SDS011;37895;53.240;6.572;2023-04-24T07:41:29;13.70;;;5.75;;
51854;SDS011;37895;53.240;6.572;2023-04-24T07:43:55;10.50;;;5.18;;
51854;SDS011;37895;53.240;6.572;2023-04-24T07:46:20;7.57;;;5.35;;
51854;SDS011;37895;53.240;6.572;2023-04-24T07:48:46;6.18;;;4.22;;
51854;SDS011;37895;53.240;6.572;2023-04-24T07:51:13;6.53;;;3.75;;
51854;SDS011;37895;53.240;6.572;2023-04-24T07:53:39;8.75;;;4.75;;
51854;SDS011;37895;53.240;6.572;2023-04-24T07:56:05;11.18;;;4.80;;
51854;SDS011;37895;53.240;6.572;2023-04-24T07:58:31;10.65;;;6.07;;
51854;SDS011;37895;53.240;6.572;2023-04-24T08:00:56;13.73;;;7.63;;
51854;SDS011;37895;53.240;6.572;2023-04-24T08:03:22;10.82;;;7.47;;
51854;SDS011;37895;53.240;6.572;2023-04-24T08:05:48;11.82;;;8.75;;
51854;SDS011;37895;53.240;6.572;2023-04-24T08:08:16;13.75;;;10.52;;
51854;SDS011;37895;53.240;6.572;2023-04-24T08:10:41;15.93;;;12.43;;
51854;SDS011;37895;53.240;6.572;2023-04-24T08:13:07;18.30;;;13.35;;
51854;SDS011;37895;53.240;6.572;2023-04-24T08:15:33;21.67;;;15.80;;
51854;SDS011;37895;53.240;6.572;2023-04-24T08:17:58;25.75;;;17.88;;
51854;SDS011;37895;53.240;6.572;2023-04-24T08:20:24;27.45;;;18.83;;
51854;SDS011;37895;53.240;6.572;2023-04-24T08:22:50;28.90;;;20.33;;
51854;SDS011;37895;53.240;6.572;2023-04-24T08:25:16;28.10;;;18.75;;
51854;SDS011;37895;53.240;6.572;2023-04-24T08:27:42;26.70;;;18.42;;
51854;SDS011;37895;53.240;6.572;2023-04-24T08:30:08;29.20;;;18.75;;
51854;SDS011;37895;53.240;6.572;2023-04-24T08:32:36;25.98;;;17.70;;
51854;SDS011;37895;53.240;6.572;2023-04-24T08:35:02;25.27;;;18.42;;
51854;SDS011;37895;53.240;6.572;2023-04-24T08:37:28;21.98;;;17.42;;
51854;SDS011;37895;53.240;6.572;2023-04-24T08:39:54;30.27;;;20.23;;
51854;SDS011;37895;53.240;6.572;2023-04-24T08:42:20;25.48;;;19.17;;
51854;SDS011;37895;53.240;6.572;2023-04-24T08:44:46;23.52;;;17.70;;
51854;SDS011;37895;53.240;6.572;2023-04-24T08:47:14;22.10;;;15.73;;
51854;SDS011;37895;53.240;6.572;2023-04-24T08:49:40;27.10;;;17.73;;
51854;SDS011;37895;53.240;6.572;2023-04-24T08:52:06;26.05;;;16.83;;
51854;SDS011;37895;53.240;6.572;2023-04-24T08:54:35;27.50;;;17.17;;
51854;SDS011;37895;53.240;6.572;2023-04-24T08:57:02;24.48;;;16.50;;
51854;SDS011;37895;53.240;6.572;2023-04-24T08:59:29;23.40;;;17.52;;
51854;SDS011;37895;53.240;6.572;2023-04-24T09:01:58;16.98;;;14.70;;
51854;SDS011;37895;53.240;6.572;2023-04-24T09:04:24;18.73;;;14.75;;
51854;SDS011;37895;53.240;6.572;2023-04-24T09:06:51;19.73;;;13.55;;
51854;SDS011;37895;53.240;6.572;2023-04-24T09:09:20;20.58;;;16.17;;
51854;SDS011;37895;53.240;6.572;2023-04-24T09:11:48;21.58;;;17.08;;
51854;SDS011;37895;53.240;6.572;2023-04-24T09:14:15;20.35;;;15.98;;
51854;SDS011;37895;53.240;6.572;2023-04-24T09:16:41;21.88;;;15.57;;
51854;SDS011;37895;53.240;6.572;2023-04-24T09:19:07;22.13;;;16.33;;
51854;SDS011;37895;53.240;6.572;2023-04-24T09:21:33;23.80;;;15.57;;
51854;SDS011;37895;53.240;6.572;2023-04-24T09:24:02;19.67;;;14.57;;
51854;SDS011;37895;53.240;6.572;2023-04-24T09:26:34;19.85;;;13.70;;
51854;SDS011;37895;53.240;6.572;2023-04-24T09:29:01;17.10;;;12.05;;
51854;SDS011;37895;53.240;6.572;2023-04-24T09:31:28;14.10;;;10.73;;
51854;SDS011;37895;53.240;6.572;2023-04-24T09:33:55;13.73;;;10.57;;
51854;SDS011;37895;53.240;6.572;2023-04-24T09:36:34;16.70;;;10.00;;
51854;SDS011;37895;53.240;6.572;2023-04-24T09:39:11;15.65;;;10.68;;
51854;SDS011;37895;53.240;6.572;2023-04-24T09:41:48;17.58;;;10.98;;
51854;SDS011;37895;53.240;6.572;2023-04-24T09:44:25;15.93;;;10.82;;
51854;SDS011;37895;53.240;6.572;2023-04-24T09:46:59;17.52;;;12.10;;
51854;SDS011;37895;53.240;6.572;2023-04-24T09:49:29;20.05;;;11.35;;
51854;SDS011;37895;53.240;6.572;2023-04-24T09:52:07;19.60;;;11.32;;
51854;SDS011;37895;53.240;6.572;2023-04-24T09:54:35;19.25;;;10.80;;
51854;SDS011;37895;53.240;6.572;2023-04-24T09:57:02;18.63;;;10.63;;
51854;SDS011;37895;53.240;6.572;2023-04-24T09:59:27;15.70;;;8.82;;
51854;SDS011;37895;53.240;6.572;2023-04-24T10:01:54;15.02;;;8.77;;
51854;SDS011;37895;53.240;6.572;2023-04-24T10:04:22;13.80;;;7.47;;
51854;SDS011;37895;53.240;6.572;2023-04-24T10:06:50;11.25;;;6.85;;
51854;SDS011;37895;53.240;6.572;2023-04-24T10:09:18;11.50;;;7.05;;
51854;SDS011;37895;53.240;6.572;2023-04-24T10:11:45;13.23;;;6.47;;
51854;SDS011;37895;53.240;6.572;2023-04-24T10:14:13;12.82;;;5.95;;
51854;SDS011;37895;53.240;6.572;2023-04-24T10:16:40;11.98;;;6.22;;
51854;SDS011;37895;53.240;6.572;2023-04-24T10:19:06;12.40;;;5.85;;
51854;SDS011;37895;53.240;6.572;2023-04-24T10:21:32;8.32;;;5.03;;
51854;SDS011;37895;53.240;6.572;2023-04-24T10:23:59;9.90;;;6.25;;
51854;SDS011;37895;53.240;6.572;2023-04-24T10:26:28;8.95;;;5.22;;
51854;SDS011;37895;53.240;6.572;2023-04-24T10:28:54;14.25;;;4.50;;
51854;SDS011;37895;53.240;6.572;2023-04-24T10:31:23;11.38;;;4.25;;
51854;SDS011;37895;53.240;6.572;2023-04-24T10:33:49;14.80;;;5.95;;
51854;SDS011;37895;53.240;6.572;2023-04-24T10:36:16;8.98;;;4.63;;
51854;SDS011;37895;53.240;6.572;2023-04-24T10:38:43;7.68;;;4.45;;
51854;SDS011;37895;53.240;6.572;2023-04-24T10:41:12;8.68;;;4.53;;
51854;SDS011;37895;53.240;6.572;2023-04-24T10:43:44;10.57;;;4.85;;
51854;SDS011;37895;53.240;6.572;2023-04-24T10:46:10;12.02;;;4.57;;
51854;SDS011;37895;53.240;6.572;2023-04-24T10:48:44;11.38;;;4.18;;
51854;SDS011;37895;53.240;6.572;2023-04-24T10:51:21;8.10;;;3.95;;
51854;SDS011;37895;53.240;6.572;2023-04-24T10:53:49;9.35;;;4.05;;
51854;SDS011;37895;53.240;6.572;2023-04-24T10:56:16;10.80;;;3.83;;
51854;SDS011;37895;53.240;6.572;2023-04-24T10:58:43;13.40;;;4.43;;
51854;SDS011;37895;53.240;6.572;2023-04-24T11:03:57;11.45;;;3.83;;
51854;SDS011;37895;53.240;6.572;2023-04-24T11:06:34;11.20;;;3.60;;
51854;SDS011;37895;53.240;6.572;2023-04-24T11:09:08;10.02;;;4.18;;
51854;SDS011;37895;53.240;6.572;2023-04-24T11:11:37;10.25;;;4.10;;
51854;SDS011;37895;53.240;6.572;2023-04-24T11:14:08;7.60;;;3.92;;
51854;SDS011;37895;53.240;6.572;2023-04-24T11:29:48;9.50;;;3.40;;
51854;SDS011;37895;53.240;6.572;2023-04-24T11:34:49;9.13;;;3.65;;
51854;SDS011;37895;53.240;6.572;2023-04-24T11:37:21;10.13;;;3.22;;
51854;SDS011;37895;53.240;6.572;2023-04-24T11:39:58;11.32;;;3.70;;
51854;SDS011;37895;53.240;6.572;2023-04-24T11:42:24;8.30;;;3.33;;
51854;SDS011;37895;53.240;6.572;2023-04-24T11:44:53;15.45;;;4.25;;
51854;SDS011;37895;53.240;6.572;2023-04-24T11:47:29;8.00;;;3.63;;
51854;SDS011;37895;53.240;6.572;2023-04-24T11:49:57;7.82;;;3.33;;
51854;SDS011;37895;53.240;6.572;2023-04-24T11:52:23;11.18;;;4.22;;
51854;SDS011;37895;53.240;6.572;2023-04-24T11:54:49;7.82;;;3.00;;
51854;SDS011;37895;53.240;6.572;2023-04-24T11:57:15;7.55;;;2.88;;
51854;SDS011;37895;53.240;6.572;2023-04-24T11:59:43;7.50;;;3.10;;
51854;SDS011;37895;53.240;6.572;2023-04-24T12:02:16;7.63;;;3.28;;
51854;SDS011;37895;53.240;6.572;2023-04-24T12:04:54;8.35;;;2.85;;
51854;SDS011;37895;53.240;6.572;2023-04-24T12:07:21;9.27;;;2.80;;
51854;SDS011;37895;53.240;6.572;2023-04-24T12:09:49;10.63;;;3.85;;
51854;SDS011;37895;53.240;6.572;2023-04-24T12:12:20;9.68;;;3.50;;
51854;SDS011;37895;53.240;6.572;2023-04-24T12:14:54;9.10;;;4.07;;
51854;SDS011;37895;53.240;6.572;2023-04-24T12:17:28;10.25;;;3.35;;
51854;SDS011;37895;53.240;6.572;2023-04-24T12:19:59;5.85;;;2.92;;
51854;SDS011;37895;53.240;6.572;2023-04-24T12:22:26;7.93;;;3.15;;
51854;SDS011;37895;53.240;6.572;2023-04-24T12:25:02;7.65;;;3.10;;
51854;SDS011;37895;53.240;6.572;2023-04-24T12:27:33;4.38;;;2.30;;
51854;SDS011;37895;53.240;6.572;2023-04-24T12:29:59;9.07;;;2.47;;
51854;SDS011;37895;53.240;6.572;2023-04-24T12:32:27;4.60;;;2.30;;
51854;SDS011;37895;53.240;6.572;2023-04-24T12:34:53;4.68;;;2.30;;
51854;SDS011;37895;53.240;6.572;2023-04-24T12:37:20;3.85;;;2.10;;
51854;SDS011;37895;53.240;6.572;2023-04-24T12:40:02;3.90;;;2.13;;
51854;SDS011;37895;53.240;6.572;2023-04-24T12:42:29;8.05;;;2.53;;
51854;SDS011;37895;53.240;6.572;2023-04-24T12:44:56;3.10;;;1.90;;
51854;SDS011;37895;53.240;6.572;2023-04-24T12:47:26;4.97;;;2.40;;
51854;SDS011;37895;53.240;6.572;2023-04-24T12:49:52;5.90;;;2.00;;
51854;SDS011;37895;53.240;6.572;2023-04-24T12:52:20;3.03;;;1.80;;
51854;SDS011;37895;53.240;6.572;2023-04-24T12:54:46;7.90;;;1.98;;
51854;SDS011;37895;53.240;6.572;2023-04-24T12:57:12;4.97;;;1.90;;
51854;SDS011;37895;53.240;6.572;2023-04-24T12:59:37;5.25;;;2.08;;
51854;SDS011;37895;53.240;6.572;2023-04-24T13:04:30;6.03;;;1.85;;
51854;SDS011;37895;53.240;6.572;2023-04-24T13:06:55;6.43;;;2.10;;
51854;SDS011;37895;53.240;6.572;2023-04-24T13:09:21;6.40;;;2.17;;
51854;SDS011;37895;53.240;6.572;2023-04-24T13:11:47;8.98;;;2.75;;
51854;SDS011;37895;53.240;6.572;2023-04-24T13:14:12;6.65;;;2.50;;
51854;SDS011;37895;53.240;6.572;2023-04-24T13:16:38;6.28;;;2.85;;
51854;SDS011;37895;53.240;6.572;2023-04-24T13:19:03;6.78;;;2.80;;
51854;SDS011;37895;53.240;6.572;2023-04-24T13:21:29;8.43;;;3.03;;
51854;SDS011;37895;53.240;6.572;2023-04-24T13:23:55;5.53;;;2.25;;
51854;SDS011;37895;53.240;6.572;2023-04-24T13:26:21;7.30;;;2.40;;
51854;SDS011;37895;53.240;6.572;2023-04-24T13:28:46;7.35;;;2.60;;
51854;SDS011;37895;53.240;6.572;2023-04-24T13:31:12;6.37;;;2.20;;
51854;SDS011;37895;53.240;6.572;2023-04-24T13:36:05;3.88;;;2.30;;
51854;SDS011;37895;53.240;6.572;2023-04-24T13:38:30;6.43;;;2.08;;
51854;SDS011;37895;53.240;6.572;2023-04-24T13:40:56;6.32;;;2.58;;
51854;SDS011;37895;53.240;6.572;2023-04-24T13:43:22;6.00;;;1.83;;
51854;SDS011;37895;53.240;6.572;2023-04-24T13:45:48;3.72;;;1.70;;
51854;SDS011;37895;53.240;6.572;2023-04-24T13:48:13;3.20;;;1.85;;
51854;SDS011;37895;53.240;6.572;2023-04-24T13:50:43;3.08;;;1.70;;
51854;SDS011;37895;53.240;6.572;2023-04-24T13:55:34;5.00;;;1.98;;
51854;SDS011;37895;53.240;6.572;2023-04-24T13:58:01;6.97;;;1.70;;
51854;SDS011;37895;53.240;6.572;2023-04-24T14:00:27;6.43;;;1.85;;
51854;SDS011;37895;53.240;6.572;2023-04-24T14:02:53;5.40;;;1.95;;
51854;SDS011;37895;53.240;6.572;2023-04-24T14:05:18;8.40;;;2.75;;
51854;SDS011;37895;53.240;6.572;2023-04-24T14:07:46;8.40;;;3.13;;
51854;SDS011;37895;53.240;6.572;2023-04-24T14:10:11;6.25;;;3.30;;
51854;SDS011;37895;53.240;6.572;2023-04-24T14:12:37;7.85;;;3.30;;
51854;SDS011;37895;53.240;6.572;2023-04-24T14:15:03;11.75;;;3.45;;
51854;SDS011;37895;53.240;6.572;2023-04-24T14:17:30;8.63;;;3.25;;
51854;SDS011;37895;53.240;6.572;2023-04-24T14:19:56;11.07;;;3.67;;
51854;SDS011;37895;53.240;6.572;2023-04-24T14:22:22;11.73;;;4.18;;
51854;SDS011;37895;53.240;6.572;2023-04-24T14:24:47;13.23;;;3.17;;
51854;SDS011;37895;53.240;6.572;2023-04-24T14:27:13;10.90;;;3.35;;
51854;SDS011;37895;53.240;6.572;2023-04-24T14:29:39;10.13;;;4.07;;
51854;SDS011;37895;53.240;6.572;2023-04-24T14:32:04;11.60;;;4.17;;
51854;SDS011;37895;53.240;6.572;2023-04-24T14:34:30;10.93;;;4.07;;
51854;SDS011;37895;53.240;6.572;2023-04-24T14:36:56;11.10;;;3.95;;
51854;SDS011;37895;53.240;6.572;2023-04-24T14:39:21;9.25;;;3.78;;
51854;SDS011;37895;53.240;6.572;2023-04-24T14:41:47;10.18;;;3.90;;
51854;SDS011;37895;53.240;6.572;2023-04-24T14:44:13;12.02;;;4.20;;
51854;SDS011;37895;53.240;6.572;2023-04-24T14:46:38;14.80;;;4.75;;
51854;SDS011;37895;53.240;6.572;2023-04-24T14:49:04;11.30;;;3.88;;
51854;SDS011;37895;53.240;6.572;2023-04-24T14:51:30;7.65;;;3.25;;
51854;SDS011;37895;53.240;6.572;2023-04-24T14:53:56;7.68;;;4.50;;
51854;SDS011;37895;53.240;6.572;2023-04-24T14:56:21;8.63;;;3.42;;
51854;SDS011;37895;53.240;6.572;2023-04-24T14:58:48;8.95;;;3.60;;
51854;SDS011;37895;53.240;6.572;2023-04-24T15:01:14;10.13;;;4.38;;
51854;SDS011;37895;53.240;6.572;2023-04-24T15:03:42;7.97;;;4.00;;
51854;SDS011;37895;53.240;6.572;2023-04-24T15:06:08;8.48;;;3.95;;
51854;SDS011;37895;53.240;6.572;2023-04-24T15:08:33;9.00;;;4.00;;
51854;SDS011;37895;53.240;6.572;2023-04-24T15:10:59;8.35;;;3.85;;